sensor_id;sensor_type;location;lat;lon;timestamp;pressure;altitude;pressure_sealevel;temperature;humidity
81622;BME280;71029;50.742;7.090;2023-07-24T00:00:03;100134.16;;;21.37;64.38
81622;BME280;71029;50.742;7.090;2023-07-24T00:02:30;100135.81;;;21.38;64.34
81622;BME280;71029;50.742;7.090;2023-07-24T00:04:56;100135.81;;;21.38;64.34
81622;BME280;71029;50.742;7.090;2023-07-24T00:07:23;100140.41;;;21.38;64.78
81622;BME280;71029;50.742;7.090;2023-07-24T00:09:49;100134.16;;;21.37;64.59
81622;BME280;71029;50.742;7.090;2023-07-24T00:12:16;100135.81;;;21.38;64.82
81622;BME280;71029;50.742;7.090;2023-07-24T00:14:42;100131.47;;;21.37;64.63
81622;BME280;71029;50.742;7.090;2023-07-24T00:17:09;100138.75;;;21.37;64.58
81622;BME280;71029;50.742;7.090;2023-07-24T00:19:35;100127.09;;;21.36;64.98
81622;BME280;71029;50.742;7.090;2023-07-24T00:22:02;100120.88;;;21.36;65.32
81622;BME280;71029;50.742;7.090;2023-07-24T00:24:31;100112.38;;;21.32;65.30
81622;BME280;71029;50.742;7.090;2023-07-24T00:26:57;100118.63;;;21.33;65.61
81622;BME280;71029;50.742;7.090;2023-07-24T00:29:24;100111.31;;;21.33;65.02
81622;BME280;71029;50.742;7.090;2023-07-24T00:31:51;100111.31;;;21.33;65.69
81622;BME280;71029;50.742;7.090;2023-07-24T00:34:17;100105.31;;;21.31;65.97
81622;BME280;71029;50.742;7.090;2023-07-24T00:36:43;100105.31;;;21.31;65.89
81622;BME280;71029;50.742;7.090;2023-07-24T00:39:10;100109.66;;;21.32;66.02
81622;BME280;71029;50.742;7.090;2023-07-24T00:41:36;100109.66;;;21.32;65.36
81622;BME280;71029;50.742;7.090;2023-07-24T00:44:03;100112.38;;;21.32;65.44
81622;BME280;71029;50.742;7.090;2023-07-24T00:46:29;100112.16;;;21.34;65.04
81622;BME280;71029;50.742;7.090;2023-07-24T00:49:00;100113.00;;;21.34;65.15
81622;BME280;71029;50.742;7.090;2023-07-24T00:51:27;100104.03;;;21.34;64.77
81622;BME280;71029;50.742;7.090;2023-07-24T00:53:55;100099.66;;;21.33;65.30
81622;BME280;71029;50.742;7.090;2023-07-24T00:56:22;100106.13;;;21.32;65.30
81622;BME280;71029;50.742;7.090;2023-07-24T00:58:49;100105.56;;;21.30;65.61
81622;BME280;71029;50.742;7.090;2023-07-24T01:01:19;100100.97;;;21.30;65.96
81622;BME280;71029;50.742;7.090;2023-07-24T01:03:45;100100.41;;;21.28;65.91
81622;BME280;71029;50.742;7.090;2023-07-24T01:06:12;100089.06;;;21.31;65.08
81622;BME280;71029;50.742;7.090;2023-07-24T01:08:38;100086.84;;;21.28;65.28
81622;BME280;71029;50.742;7.090;2023-07-24T01:11:28;100081.44;;;21.28;65.52
81622;BME280;71029;50.742;7.090;2023-07-24T01:14:02;100078.13;;;21.26;65.74
81622;BME280;71029;50.742;7.090;2023-07-24T01:16:38;100072.50;;;21.28;65.36
81622;BME280;71029;50.742;7.090;2023-07-24T01:24:56;100066.00;;;21.29;64.93
81622;BME280;71029;50.742;7.090;2023-07-24T01:27:26;100053.53;;;21.28;65.46
81622;BME280;71029;50.742;7.090;2023-07-24T01:29:53;100048.94;;;21.28;64.82
81622;BME280;71029;50.742;7.090;2023-07-24T01:32:19;100042.91;;;21.26;65.15
81622;BME280;71029;50.742;7.090;2023-07-24T01:34:47;100033.97;;;21.26;64.77
81622;BME280;71029;50.742;7.090;2023-07-24T01:37:14;100041.38;;;21.30;64.46
81622;BME280;71029;50.742;7.090;2023-07-24T01:39:41;100040.19;;;21.26;64.87
81622;BME280;71029;50.742;7.090;2023-07-24T01:42:10;100045.63;;;21.26;64.87
81622;BME280;71029;50.742;7.090;2023-07-24T01:44:36;100049.16;;;21.27;65.14
81622;BME280;71029;50.742;7.090;2023-07-24T01:47:03;100034.56;;;21.28;64.79
81622;BME280;71029;50.742;7.090;2023-07-24T01:49:30;100038.53;;;21.25;64.43
81622;BME280;71029;50.742;7.090;2023-07-24T01:51:57;100051.03;;;21.26;65.15
81622;BME280;71029;50.742;7.090;2023-07-24T01:54:23;100046.66;;;21.25;64.87
81622;BME280;71029;50.742;7.090;2023-07-24T01:56:50;100048.53;;;21.24;64.52
81622;BME280;71029;50.742;7.090;2023-07-24T01:59:17;100041.25;;;21.25;64.73
81622;BME280;71029;50.742;7.090;2023-07-24T02:01:43;100040.66;;;21.23;64.80
81622;BME280;71029;50.742;7.090;2023-07-24T02:04:10;100045.00;;;21.24;64.39
81622;BME280;71029;50.742;7.090;2023-07-24T02:06:36;100041.75;;;21.22;64.26
81622;BME280;71029;50.742;7.090;2023-07-24T02:09:03;100033.59;;;21.22;64.51
81622;BME280;71029;50.742;7.090;2023-07-24T02:11:29;100039.03;;;21.22;64.49
81622;BME280;71029;50.742;7.090;2023-07-24T02:13:56;100036.88;;;21.24;64.17
81622;BME280;71029;50.742;7.090;2023-07-24T02:16:22;100030.66;;;21.23;64.45
81622;BME280;71029;50.742;7.090;2023-07-24T02:18:49;100025.50;;;21.22;64.56
81622;BME280;71029;50.742;7.090;2023-07-24T02:21:15;100026.31;;;21.22;64.56
81622;BME280;71029;50.742;7.090;2023-07-24T02:23:42;100027.38;;;21.21;64.54
81622;BME280;71029;50.742;7.090;2023-07-24T02:26:08;100041.97;;;21.20;64.82
81622;BME280;71029;50.742;7.090;2023-07-24T02:28:35;100033.28;;;21.18;64.37
81622;BME280;71029;50.742;7.090;2023-07-24T02:31:01;100026.81;;;21.19;64.97
81622;BME280;71029;50.742;7.090;2023-07-24T02:33:28;100029.75;;;21.18;64.62
81622;BME280;71029;50.742;7.090;2023-07-24T02:35:55;100017.03;;;21.18;64.34
81622;BME280;71029;50.742;7.090;2023-07-24T02:38:21;99997.47;;;21.16;64.88
81622;BME280;71029;50.742;7.090;2023-07-24T02:40:48;99991.25;;;21.16;65.29
81622;BME280;71029;50.742;7.090;2023-07-24T02:43:15;99992.88;;;21.17;64.65
81622;BME280;71029;50.742;7.090;2023-07-24T02:45:41;99997.25;;;21.18;64.17
81622;BME280;71029;50.742;7.090;2023-07-24T02:48:08;99991.00;;;21.17;64.72
81622;BME280;71029;50.742;7.090;2023-07-24T02:50:35;99976.16;;;21.20;64.48
81622;BME280;71029;50.742;7.090;2023-07-24T02:53:01;99979.94;;;21.19;64.13
81622;BME280;71029;50.742;7.090;2023-07-24T02:55:28;99971.81;;;21.19;64.07
81622;BME280;71029;50.742;7.090;2023-07-24T02:57:54;99962.88;;;21.18;65.04
81622;BME280;71029;50.742;7.090;2023-07-24T03:00:21;99965.78;;;21.17;64.91
81622;BME280;71029;50.742;7.090;2023-07-24T03:02:47;99962.53;;;21.15;65.08
81622;BME280;71029;50.742;7.090;2023-07-24T03:05:14;99969.56;;;21.16;64.69
81622;BME280;71029;50.742;7.090;2023-07-24T03:07:40;99970.41;;;21.16;64.49
81622;BME280;71029;50.742;7.090;2023-07-24T03:10:07;99952.25;;;21.17;64.42
81622;BME280;71029;50.742;7.090;2023-07-24T03:12:34;99961.19;;;21.17;64.24
81622;BME280;71029;50.742;7.090;2023-07-24T03:15:01;99960.38;;;21.17;64.49
81622;BME280;71029;50.742;7.090;2023-07-24T03:17:27;99947.91;;;21.16;64.36
81622;BME280;71029;50.742;7.090;2023-07-24T03:19:54;99940.28;;;21.13;64.77
81622;BME280;71029;50.742;7.090;2023-07-24T03:22:21;99955.47;;;21.14;65.17
81622;BME280;71029;50.742;7.090;2023-07-24T03:24:47;99946.28;;;21.15;64.49
81622;BME280;71029;50.742;7.090;2023-07-24T03:27:13;99938.16;;;21.15;64.60
81622;BME280;71029;50.742;7.090;2023-07-24T03:29:40;99930.84;;;21.15;64.55
81622;BME280;71029;50.742;7.090;2023-07-24T03:32:07;99939.78;;;21.16;64.32
81622;BME280;71029;50.742;7.090;2023-07-24T03:34:33;99931.09;;;21.14;64.52
81622;BME280;71029;50.742;7.090;2023-07-24T03:37:00;99934.63;;;21.14;64.95
81622;BME280;71029;50.742;7.090;2023-07-24T03:39:26;99931.66;;;21.16;65.04
81622;BME280;71029;50.742;7.090;2023-07-24T03:41:53;99935.44;;;21.15;65.16
81622;BME280;71029;50.742;7.090;2023-07-24T03:44:19;99945.19;;;21.16;65.18
81622;BME280;71029;50.742;7.090;2023-07-24T03:46:46;99944.38;;;21.15;65.19
81622;BME280;71029;50.742;7.090;2023-07-24T03:49:12;99932.72;;;21.15;64.90
81622;BME280;71029;50.742;7.090;2023-07-24T03:51:39;99931.09;;;21.14;65.25
81622;BME280;71029;50.742;7.090;2023-07-24T03:54:05;99924.03;;;21.13;65.29
81622;BME280;71029;50.742;7.090;2023-07-24T03:56:32;99936.50;;;21.14;65.68
81622;BME280;71029;50.742;7.090;2023-07-24T03:58:58;99928.88;;;21.11;65.48
81622;BME280;71029;50.742;7.090;2023-07-24T04:01:25;99937.31;;;21.14;64.90
81622;BME280;71029;50.742;7.090;2023-07-24T04:03:52;99928.38;;;21.14;64.60
81622;BME280;71029;50.742;7.090;2023-07-24T04:06:19;99931.09;;;21.14;65.39
81622;BME280;71029;50.742;7.090;2023-07-24T04:08:45;99927.81;;;21.12;65.33
81622;BME280;71029;50.742;7.090;2023-07-24T04:11:11;99923.47;;;21.11;64.68
81622;BME280;71029;50.742;7.090;2023-07-24T04:13:38;99922.41;;;21.12;65.28
81622;BME280;71029;50.742;7.090;2023-07-24T04:16:04;99923.22;;;21.12;65.03
81622;BME280;71029;50.742;7.090;2023-07-24T04:18:31;99935.13;;;21.11;64.89
81622;BME280;71029;50.742;7.090;2023-07-24T04:20:57;99940.78;;;21.10;65.20
81622;BME280;71029;50.742;7.090;2023-07-24T04:23:24;99935.13;;;21.11;64.82
81622;BME280;71029;50.742;7.090;2023-07-24T04:25:50;99941.94;;;21.14;65.04
81622;BME280;71029;50.742;7.090;2023-07-24T04:28:17;99941.59;;;21.10;65.35
81622;BME280;71029;50.742;7.090;2023-07-24T04:30:43;99941.81;;;21.09;65.56
81622;BME280;71029;50.742;7.090;2023-07-24T04:33:09;99945.59;;;21.08;65.69
81622;BME280;71029;50.742;7.090;2023-07-24T04:35:36;99929.34;;;21.08;65.43
81622;BME280;71029;50.742;7.090;2023-07-24T04:38:03;99942.88;;;21.08;65.19
81622;BME280;71029;50.742;7.090;2023-07-24T04:40:29;99955.63;;;21.07;65.36
81622;BME280;71029;50.742;7.090;2023-07-24T04:42:56;99960.78;;;21.09;64.69
81622;BME280;71029;50.742;7.090;2023-07-24T04:45:22;99950.44;;;21.06;64.97
81622;BME280;71029;50.742;7.090;2023-07-24T04:47:49;99952.34;;;21.05;65.50
81622;BME280;71029;50.742;7.090;2023-07-24T04:50:16;99952.34;;;21.05;65.29
81622;BME280;71029;50.742;7.090;2023-07-24T04:52:43;99953.97;;;21.06;64.81
81622;BME280;71029;50.742;7.090;2023-07-24T04:55:09;99956.44;;;21.08;64.90
81622;BME280;71029;50.742;7.090;2023-07-24T04:57:36;99966.19;;;21.09;64.51
81622;BME280;71029;50.742;7.090;2023-07-24T05:00:03;99972.69;;;21.08;64.68
81622;BME280;71029;50.742;7.090;2023-07-24T05:02:29;99966.44;;;21.07;64.31
81622;BME280;71029;50.742;7.090;2023-07-24T05:04:56;99967.25;;;21.08;64.62
81622;BME280;71029;50.742;7.090;2023-07-24T05:07:23;99964.81;;;21.06;64.29
81622;BME280;71029;50.742;7.090;2023-07-24T05:09:49;99959.13;;;21.08;63.97
81622;BME280;71029;50.742;7.090;2023-07-24T05:12:15;99963.47;;;21.09;64.12
81622;BME280;71029;50.742;7.090;2023-07-24T05:14:42;99959.75;;;21.10;63.95
81622;BME280;71029;50.742;7.090;2023-07-24T05:17:08;99967.25;;;21.08;64.07
81622;BME280;71029;50.742;7.090;2023-07-24T05:19:35;99959.75;;;21.10;63.50
81622;BME280;71029;50.742;7.090;2023-07-24T05:22:01;99958.06;;;21.09;63.78
81622;BME280;71029;50.742;7.090;2023-07-24T05:24:28;99972.44;;;21.09;63.46
81622;BME280;71029;50.742;7.090;2023-07-24T05:26:54;99973.50;;;21.08;63.44
81622;BME280;71029;50.742;7.090;2023-07-24T05:29:21;99976.22;;;21.08;63.57
81622;BME280;71029;50.742;7.090;2023-07-24T05:31:48;99988.94;;;21.08;63.13
81622;BME280;71029;50.742;7.090;2023-07-24T05:34:14;99991.16;;;21.11;63.60
81622;BME280;71029;50.742;7.090;2023-07-24T05:36:41;99997.41;;;21.11;63.28
81622;BME280;71029;50.742;7.090;2023-07-24T05:39:07;100000.69;;;21.13;63.25
81622;BME280;71029;50.742;7.090;2023-07-24T05:41:34;99996.66;;;21.16;63.14
81622;BME280;71029;50.742;7.090;2023-07-24T05:44:03;99992.88;;;21.17;62.81
81622;BME280;71029;50.742;7.090;2023-07-24T05:46:30;99991.84;;;21.18;62.81
81622;BME280;71029;50.742;7.090;2023-07-24T05:48:57;99992.41;;;21.20;62.67
81622;BME280;71029;50.742;7.090;2023-07-24T05:51:23;99988.88;;;21.19;62.77
81622;BME280;71029;50.742;7.090;2023-07-24T05:53:50;99999.22;;;21.22;62.63
81622;BME280;71029;50.742;7.090;2023-07-24T05:56:16;100004.31;;;21.19;62.05
81622;BME280;71029;50.742;7.090;2023-07-24T05:58:43;100008.66;;;21.20;62.43
81622;BME280;71029;50.742;7.090;2023-07-24T06:01:09;100012.75;;;21.22;62.03
81622;BME280;71029;50.742;7.090;2023-07-24T06:03:36;100014.41;;;21.23;62.37
81622;BME280;71029;50.742;7.090;2023-07-24T06:06:05;100009.81;;;21.24;62.10
81622;BME280;71029;50.742;7.090;2023-07-24T06:08:31;100005.22;;;21.24;62.30
81622;BME280;71029;50.742;7.090;2023-07-24T06:10:58;100006.66;;;21.27;62.30
81622;BME280;71029;50.742;7.090;2023-07-24T06:13:24;100009.38;;;21.27;62.08
81622;BME280;71029;50.742;7.090;2023-07-24T06:15:52;100007.22;;;21.29;61.66
81622;BME280;71029;50.742;7.090;2023-07-24T06:18:18;100000.50;;;21.32;61.86
81622;BME280;71029;50.742;7.090;2023-07-24T06:20:45;100001.66;;;21.36;61.82
81622;BME280;71029;50.742;7.090;2023-07-24T06:23:12;99992.22;;;21.38;61.91
81622;BME280;71029;50.742;7.090;2023-07-24T06:25:38;100000.09;;;21.40;62.22
81622;BME280;71029;50.742;7.090;2023-07-24T06:28:04;100007.16;;;21.41;61.83
81622;BME280;71029;50.742;7.090;2023-07-24T06:30:31;100001.28;;;21.44;62.42
81622;BME280;71029;50.742;7.090;2023-07-24T06:32:57;99990.28;;;21.50;62.84
81622;BME280;71029;50.742;7.090;2023-07-24T06:35:24;99990.03;;;21.52;62.32
81622;BME280;71029;50.742;7.090;2023-07-24T06:37:51;99992.47;;;21.54;62.47
81622;BME280;71029;50.742;7.090;2023-07-24T06:40:17;99985.31;;;21.47;62.60
81622;BME280;71029;50.742;7.090;2023-07-24T06:42:45;99998.06;;;21.47;62.96
81622;BME280;71029;50.742;7.090;2023-07-24T06:45:11;99998.41;;;21.50;63.01
81622;BME280;71029;50.742;7.090;2023-07-24T06:47:38;100000.38;;;21.55;62.16
81622;BME280;71029;50.742;7.090;2023-07-24T06:50:05;100011.97;;;21.50;62.28
81622;BME280;71029;50.742;7.090;2023-07-24T06:52:32;100001.59;;;21.47;62.57
81622;BME280;71029;50.742;7.090;2023-07-24T06:54:59;99993.13;;;21.44;62.71
81622;BME280;71029;50.742;7.090;2023-07-24T06:57:26;99989.84;;;21.42;62.38
81622;BME280;71029;50.742;7.090;2023-07-24T06:59:52;99987.38;;;21.40;62.69
81622;BME280;71029;50.742;7.090;2023-07-24T07:02:20;99985.72;;;21.39;62.43
81622;BME280;71029;50.742;7.090;2023-07-24T07:04:47;99980.88;;;21.41;62.45
81622;BME280;71029;50.742;7.090;2023-07-24T07:07:14;99974.66;;;21.41;62.60
81622;BME280;71029;50.742;7.090;2023-07-24T07:09:40;99978.16;;;21.41;62.31
81622;BME280;71029;50.742;7.090;2023-07-24T07:12:07;99976.31;;;21.42;62.41
81622;BME280;71029;50.742;7.090;2023-07-24T07:14:34;99977.13;;;21.42;62.61
81622;BME280;71029;50.742;7.090;2023-07-24T07:17:01;99978.16;;;21.41;61.94
81622;BME280;71029;50.742;7.090;2023-07-24T07:19:27;99969.81;;;21.43;62.11
81622;BME280;71029;50.742;7.090;2023-07-24T07:21:54;99969.81;;;21.43;62.40
81622;BME280;71029;50.742;7.090;2023-07-24T07:24:20;99970.66;;;21.43;62.10
81622;BME280;71029;50.742;7.090;2023-07-24T07:26:47;99969.56;;;21.44;62.13
81622;BME280;71029;50.742;7.090;2023-07-24T07:29:13;99959.81;;;21.43;61.75
81622;BME280;71029;50.742;7.090;2023-07-24T07:31:40;99958.75;;;21.44;61.95
81622;BME280;71029;50.742;7.090;2023-07-24T07:34:06;99956.03;;;21.44;61.65
81622;BME280;71029;50.742;7.090;2023-07-24T07:36:33;99950.59;;;21.44;62.12
81622;BME280;71029;50.742;7.090;2023-07-24T07:38:59;99947.34;;;21.42;61.95
81622;BME280;71029;50.742;7.090;2023-07-24T07:41:26;99952.75;;;21.42;62.31
81622;BME280;71029;50.742;7.090;2023-07-24T07:43:52;99947.34;;;21.42;62.11
81622;BME280;71029;50.742;7.090;2023-07-24T07:46:19;99936.50;;;21.42;61.96
81622;BME280;71029;50.742;7.090;2023-07-24T07:48:45;99935.91;;;21.40;62.19
81622;BME280;71029;50.742;7.090;2023-07-24T07:51:15;99939.44;;;21.41;62.41
81622;BME280;71029;50.742;7.090;2023-07-24T07:53:41;99927.78;;;21.40;62.26
81622;BME280;71029;50.742;7.090;2023-07-24T07:56:08;99932.38;;;21.40;62.36
81622;BME280;71029;50.742;7.090;2023-07-24T07:58:34;99939.19;;;21.42;62.04
81622;BME280;71029;50.742;7.090;2023-07-24T08:01:05;99946.25;;;21.43;61.68
81622;BME280;71029;50.742;7.090;2023-07-24T08:03:32;99954.69;;;21.47;62.22
81622;BME280;71029;50.742;7.090;2023-07-24T08:05:59;99938.78;;;21.50;62.03
81622;BME280;71029;50.742;7.090;2023-07-24T08:08:26;99926.63;;;21.53;61.40
81622;BME280;71029;50.742;7.090;2023-07-24T08:10:52;99933.38;;;21.50;61.20
81622;BME280;71029;50.742;7.090;2023-07-24T08:13:19;99937.13;;;21.49;61.63
81622;BME280;71029;50.742;7.090;2023-07-24T08:15:45;99940.69;;;21.50;61.93
81622;BME280;71029;50.742;7.090;2023-07-24T08:18:12;99949.63;;;21.50;61.48
81622;BME280;71029;50.742;7.090;2023-07-24T08:20:38;99944.22;;;21.50;61.65
81622;BME280;71029;50.742;7.090;2023-07-24T08:23:06;99950.66;;;21.49;61.39
81622;BME280;71029;50.742;7.090;2023-07-24T08:25:32;99933.84;;;21.47;61.64
81622;BME280;71029;50.742;7.090;2023-07-24T08:27:59;99929.25;;;21.48;61.33
81622;BME280;71029;50.742;7.090;2023-07-24T08:30:32;99924.66;;;21.48;61.69
81622;BME280;71029;50.742;7.090;2023-07-24T08:33:00;99915.69;;;21.48;61.62
81622;BME280;71029;50.742;7.090;2023-07-24T08:35:26;99908.66;;;21.47;61.35
81622;BME280;71029;50.742;7.090;2023-07-24T08:37:53;99919.00;;;21.50;61.11
81622;BME280;71029;50.742;7.090;2023-07-24T08:40:19;99922.53;;;21.50;61.52
81622;BME280;71029;50.742;7.090;2023-07-24T08:42:49;99910.38;;;21.53;61.59
81622;BME280;71029;50.742;7.090;2023-07-24T08:45:16;99906.84;;;21.53;61.47
81622;BME280;71029;50.742;7.090;2023-07-24T08:47:43;99907.16;;;21.56;61.22
81622;BME280;71029;50.742;7.090;2023-07-24T08:50:11;99898.56;;;21.59;61.52
81622;BME280;71029;50.742;7.090;2023-07-24T08:52:39;99902.66;;;21.62;61.06
81622;BME280;71029;50.742;7.090;2023-07-24T08:55:06;99897.47;;;21.60;61.10
81622;BME280;71029;50.742;7.090;2023-07-24T08:57:33;99915.63;;;21.60;61.08
81622;BME280;71029;50.742;7.090;2023-07-24T09:00:00;99913.16;;;21.58;61.29
81622;BME280;71029;50.742;7.090;2023-07-24T09:02:32;99908.78;;;21.57;61.09
81622;BME280;71029;50.742;7.090;2023-07-24T09:04:59;99909.03;;;21.56;61.43
81622;BME280;71029;50.742;7.090;2023-07-24T09:07:25;99904.44;;;21.56;61.26
81622;BME280;71029;50.742;7.090;2023-07-24T09:09:52;99901.75;;;21.56;61.08
81622;BME280;71029;50.742;7.090;2023-07-24T09:12:19;99895.50;;;21.56;61.25
81622;BME280;71029;50.742;7.090;2023-07-24T09:14:45;99894.94;;;21.54;61.02
81622;BME280;71029;50.742;7.090;2023-07-24T09:17:12;99892.78;;;21.56;60.97
81622;BME280;71029;50.742;7.090;2023-07-24T09:19:38;99885.72;;;21.55;61.40
81622;BME280;71029;50.742;7.090;2023-07-24T09:22:16;99885.47;;;21.56;61.32
81622;BME280;71029;50.742;7.090;2023-07-24T09:24:55;99863.25;;;21.54;60.94
81622;BME280;71029;50.742;7.090;2023-07-24T09:27:26;99872.19;;;21.55;60.99
81622;BME280;71029;50.742;7.090;2023-07-24T09:29:55;99863.50;;;21.53;61.35
81622;BME280;71029;50.742;7.090;2023-07-24T09:32:24;99866.19;;;21.53;61.21
81622;BME280;71029;50.742;7.090;2023-07-24T09:34:51;99851.84;;;21.52;61.27
81622;BME280;71029;50.742;7.090;2023-07-24T09:37:27;99845.09;;;21.55;60.99
81622;BME280;71029;50.742;7.090;2023-07-24T09:39:57;99838.84;;;21.54;60.71
81622;BME280;71029;50.742;7.090;2023-07-24T09:42:32;99836.69;;;21.56;60.97
81622;BME280;71029;50.742;7.090;2023-07-24T09:45:03;99834.81;;;21.57;61.11
81622;BME280;71029;50.742;7.090;2023-07-24T09:47:31;99826.13;;;21.55;60.63
81622;BME280;71029;50.742;7.090;2023-07-24T09:50:17;99830.47;;;21.56;60.87
81622;BME280;71029;50.742;7.090;2023-07-24T09:52:46;99822.34;;;21.56;60.71
81622;BME280;71029;50.742;7.090;2023-07-24T09:55:21;99821.25;;;21.57;60.69
81622;BME280;71029;50.742;7.090;2023-07-24T09:57:54;99819.63;;;21.56;60.74
81622;BME280;71029;50.742;7.090;2023-07-24T10:00:21;99813.13;;;21.57;60.92
81622;BME280;71029;50.742;7.090;2023-07-24T10:02:48;99820.22;;;21.58;60.63
81622;BME280;71029;50.742;7.090;2023-07-24T10:05:15;99817.00;;;21.61;60.72
81622;BME280;71029;50.742;7.090;2023-07-24T10:07:42;99812.25;;;21.73;61.06
81622;BME280;71029;50.742;7.090;2023-07-24T10:10:09;99814.06;;;21.84;61.20
81622;BME280;71029;50.742;7.090;2023-07-24T10:12:36;99817.06;;;21.88;60.49
81622;BME280;71029;50.742;7.090;2023-07-24T10:15:05;99803.66;;;21.76;60.71
81622;BME280;71029;50.742;7.090;2023-07-24T10:17:39;99802.50;;;21.72;60.80
81622;BME280;71029;50.742;7.090;2023-07-24T10:20:08;99797.59;;;21.69;61.04
81622;BME280;71029;50.742;7.090;2023-07-24T10:22:36;99794.53;;;21.65;60.81
81622;BME280;71029;50.742;7.090;2023-07-24T10:25:04;99800.22;;;21.64;60.68
81622;BME280;71029;50.742;7.090;2023-07-24T10:27:35;99793.16;;;21.63;61.12
81622;BME280;71029;50.742;7.090;2023-07-24T10:30:04;99786.66;;;21.64;61.05
81622;BME280;71029;50.742;7.090;2023-07-24T10:32:48;99776.16;;;21.67;61.01
81622;BME280;71029;50.742;7.090;2023-07-24T10:35:20;99778.63;;;21.69;61.00
81622;BME280;71029;50.742;7.090;2023-07-24T10:37:59;99778.63;;;21.69;60.50
81622;BME280;71029;50.742;7.090;2023-07-24T10:40:26;99775.66;;;21.70;60.72
81622;BME280;71029;50.742;7.090;2023-07-24T10:43:06;99780.34;;;21.75;60.82
81622;BME280;71029;50.742;7.090;2023-07-24T10:45:52;99780.19;;;21.87;60.75
81622;BME280;71029;50.742;7.090;2023-07-24T10:48:23;99777.81;;;21.90;60.45
81622;BME280;71029;50.742;7.090;2023-07-24T10:50:51;99785.94;;;21.90;60.18
81622;BME280;71029;50.742;7.090;2023-07-24T10:53:22;99786.75;;;21.91;59.97
81622;BME280;71029;50.742;7.090;2023-07-24T10:55:50;99783.97;;;21.86;60.09
81622;BME280;71029;50.742;7.090;2023-07-24T10:58:17;99772.84;;;21.82;60.09
81622;BME280;71029;50.742;7.090;2023-07-24T11:00:44;99772.88;;;21.87;59.71
81622;BME280;71029;50.742;7.090;2023-07-24T11:03:11;99763.66;;;21.88;59.67
81622;BME280;71029;50.742;7.090;2023-07-24T11:05:43;99759.84;;;21.84;60.02
81622;BME280;71029;50.742;7.090;2023-07-24T11:08:14;99751.75;;;21.89;59.72
81622;BME280;71029;50.742;7.090;2023-07-24T11:10:48;99749.56;;;21.86;59.68
81622;BME280;71029;50.742;7.090;2023-07-24T11:13:20;99751.97;;;21.83;59.88
81622;BME280;71029;50.742;7.090;2023-07-24T11:15:48;99736.69;;;21.76;59.78
81622;BME280;71029;50.742;7.090;2023-07-24T11:18:16;99735.06;;;21.75;59.97
81622;BME280;71029;50.742;7.090;2023-07-24T11:20:44;99724.84;;;21.83;59.97
81622;BME280;71029;50.742;7.090;2023-07-24T11:23:12;99721.16;;;21.94;59.14
81622;BME280;71029;50.742;7.090;2023-07-24T11:25:40;99712.50;;;21.97;59.99
81622;BME280;71029;50.742;7.090;2023-07-24T11:28:08;99722.00;;;21.94;59.99
81622;BME280;71029;50.742;7.090;2023-07-24T11:30:36;99720.88;;;21.90;59.68
81622;BME280;71029;50.742;7.090;2023-07-24T11:33:05;99714.88;;;21.88;59.86
81622;BME280;71029;50.742;7.090;2023-07-24T11:35:33;99712.22;;;21.93;59.68
81622;BME280;71029;50.742;7.090;2023-07-24T11:38:00;99705.81;;;22.04;58.93
81622;BME280;71029;50.742;7.090;2023-07-24T11:40:45;99698.75;;;22.03;59.12
81622;BME280;71029;50.742;7.090;2023-07-24T11:43:17;99704.97;;;21.99;59.22
81622;BME280;71029;50.742;7.090;2023-07-24T11:45:45;99705.16;;;21.92;59.04
81622;BME280;71029;50.742;7.090;2023-07-24T11:48:12;99707.00;;;21.87;59.33
81622;BME280;71029;50.742;7.090;2023-07-24T11:50:52;99712.69;;;21.85;59.70
81622;BME280;71029;50.742;7.090;2023-07-24T11:53:24;99729.19;;;21.84;59.53
81622;BME280;71029;50.742;7.090;2023-07-24T11:55:58;99733.81;;;21.83;59.22
81622;BME280;71029;50.742;7.090;2023-07-24T11:58:26;99728.13;;;21.85;59.23
81622;BME280;71029;50.742;7.090;2023-07-24T12:00:53;99739.78;;;21.85;59.82
81622;BME280;71029;50.742;7.090;2023-07-24T12:03:21;99736.63;;;21.93;59.64
81622;BME280;71029;50.742;7.090;2023-07-24T12:05:48;99740.34;;;21.87;59.77
81622;BME280;71029;50.742;7.090;2023-07-24T12:08:17;99736.00;;;21.86;60.08
81622;BME280;71029;50.742;7.090;2023-07-24T12:10:45;99739.78;;;21.85;59.65
81622;BME280;71029;50.742;7.090;2023-07-24T12:13:12;99757.13;;;21.84;59.68
81622;BME280;71029;50.742;7.090;2023-07-24T12:15:38;99749.00;;;21.84;59.98
81622;BME280;71029;50.742;7.090;2023-07-24T12:18:05;99747.84;;;21.80;60.03
81622;BME280;71029;50.742;7.090;2023-07-24T12:20:34;99751.97;;;21.83;60.02
81622;BME280;71029;50.742;7.090;2023-07-24T12:23:01;99767.97;;;21.84;60.01
81622;BME280;71029;50.742;7.090;2023-07-24T12:25:27;99772.31;;;21.85;60.27
81622;BME280;71029;50.742;7.090;2023-07-24T12:27:54;99763.09;;;21.86;60.36
81622;BME280;71029;50.742;7.090;2023-07-24T12:30:20;99770.41;;;21.86;60.40
81622;BME280;71029;50.742;7.090;2023-07-24T12:32:47;99785.88;;;21.85;59.87
81622;BME280;71029;50.742;7.090;2023-07-24T12:35:16;99764.19;;;21.85;60.16
81622;BME280;71029;50.742;7.090;2023-07-24T12:37:43;99747.41;;;21.88;60.40
81622;BME280;71029;50.742;7.090;2023-07-24T12:40:10;99744.69;;;21.88;60.31
81622;BME280;71029;50.742;7.090;2023-07-24T12:42:37;99737.13;;;21.90;60.56
81622;BME280;71029;50.742;7.090;2023-07-24T12:45:04;99732.84;;;21.94;60.24
81622;BME280;71029;50.742;7.090;2023-07-24T12:47:31;99727.41;;;21.94;60.60
81622;BME280;71029;50.742;7.090;2023-07-24T12:49:58;99727.16;;;21.96;60.06
81622;BME280;71029;50.742;7.090;2023-07-24T12:52:26;99723.13;;;21.98;60.29
81622;BME280;71029;50.742;7.090;2023-07-24T12:54:53;99736.44;;;22.00;60.17
81622;BME280;71029;50.742;7.090;2023-07-24T12:57:28;99731.81;;;22.00;60.25
81622;BME280;71029;50.742;7.090;2023-07-24T12:59:54;99734.47;;;21.95;60.32
81622;BME280;71029;50.742;7.090;2023-07-24T13:02:21;99739.63;;;21.97;60.67
81622;BME280;71029;50.742;7.090;2023-07-24T13:04:47;99736.09;;;21.96;59.94